sensor_id;sensor_type;location;lat;lon;timestamp;P1;durP1;ratioP1;P2;durP2;ratioP2
1759;SDS011;877;46.266;20.062;2024-02-16T00:00:31;74.80;;;44.15;;
1759;SDS011;877;46.266;20.062;2024-02-16T00:02:58;74.18;;;43.38;;
1759;SDS011;877;46.266;20.062;2024-02-16T00:05:24;77.10;;;45.58;;
1759;SDS011;877;46.266;20.062;2024-02-16T00:07:51;82.13;;;48.40;;
1759;SDS011;877;46.266;20.062;2024-02-16T00:10:17;82.50;;;50.75;;
1759;SDS011;877;46.266;20.062;2024-02-16T00:12:45;87.55;;;50.00;;
1759;SDS011;877;46.266;20.062;2024-02-16T00:15:11;111.63;;;61.15;;
1759;SDS011;877;46.266;20.062;2024-02-16T00:17:37;104.07;;;59.30;;
1759;SDS011;877;46.266;20.062;2024-02-16T00:20:04;90.45;;;50.22;;
1759;SDS011;877;46.266;20.062;2024-02-16T00:22:32;84.95;;;47.92;;
1759;SDS011;877;46.266;20.062;2024-02-16T00:24:59;87.85;;;46.05;;
1759;SDS011;877;46.266;20.062;2024-02-16T00:27:25;81.22;;;47.50;;
1759;SDS011;877;46.266;20.062;2024-02-16T00:29:53;71.63;;;41.42;;
1759;SDS011;877;46.266;20.062;2024-02-16T00:32:19;70.43;;;42.28;;
1759;SDS011;877;46.266;20.062;2024-02-16T00:34:45;65.40;;;40.03;;
1759;SDS011;877;46.266;20.062;2024-02-16T00:37:11;57.70;;;38.17;;
1759;SDS011;877;46.266;20.062;2024-02-16T00:39:38;58.95;;;34.10;;
1759;SDS011;877;46.266;20.062;2024-02-16T00:42:07;55.78;;;35.17;;
1759;SDS011;877;46.266;20.062;2024-02-16T00:44:33;53.70;;;29.80;;
1759;SDS011;877;46.266;20.062;2024-02-16T00:46:59;46.38;;;29.42;;
1759;SDS011;877;46.266;20.062;2024-02-16T00:49:25;47.08;;;30.77;;
1759;SDS011;877;46.266;20.062;2024-02-16T00:51:51;53.10;;;30.50;;
1759;SDS011;877;46.266;20.062;2024-02-16T00:54:17;45.33;;;30.13;;
1759;SDS011;877;46.266;20.062;2024-02-16T00:56:44;50.60;;;34.00;;
1759;SDS011;877;46.266;20.062;2024-02-16T00:59:10;58.53;;;35.83;;
1759;SDS011;877;46.266;20.062;2024-02-16T01:01:37;57.58;;;36.75;;
1759;SDS011;877;46.266;20.062;2024-02-16T01:04:03;69.20;;;41.28;;
1759;SDS011;877;46.266;20.062;2024-02-16T01:06:32;74.03;;;43.25;;
1759;SDS011;877;46.266;20.062;2024-02-16T01:09:00;83.45;;;48.13;;
1759;SDS011;877;46.266;20.062;2024-02-16T01:11:26;79.88;;;46.20;;
1759;SDS011;877;46.266;20.062;2024-02-16T01:13:52;64.20;;;38.75;;
1759;SDS011;877;46.266;20.062;2024-02-16T01:16:18;58.60;;;37.92;;
1759;SDS011;877;46.266;20.062;2024-02-16T01:18:44;71.00;;;40.57;;
1759;SDS011;877;46.266;20.062;2024-02-16T01:21:11;63.67;;;39.25;;
1759;SDS011;877;46.266;20.062;2024-02-16T01:23:37;66.75;;;41.40;;
1759;SDS011;877;46.266;20.062;2024-02-16T01:26:03;64.07;;;41.92;;
1759;SDS011;877;46.266;20.062;2024-02-16T01:28:29;71.30;;;38.58;;
1759;SDS011;877;46.266;20.062;2024-02-16T01:30:55;66.65;;;41.22;;
1759;SDS011;877;46.266;20.062;2024-02-16T01:33:21;61.50;;;38.67;;
1759;SDS011;877;46.266;20.062;2024-02-16T01:35:48;66.07;;;38.75;;
1759;SDS011;877;46.266;20.062;2024-02-16T01:38:14;59.85;;;38.08;;
1759;SDS011;877;46.266;20.062;2024-02-16T01:40:40;65.28;;;39.72;;
1759;SDS011;877;46.266;20.062;2024-02-16T01:43:06;75.07;;;42.85;;
1759;SDS011;877;46.266;20.062;2024-02-16T01:45:32;75.25;;;42.80;;
1759;SDS011;877;46.266;20.062;2024-02-16T01:47:58;64.05;;;40.15;;
1759;SDS011;877;46.266;20.062;2024-02-16T01:50:24;60.33;;;38.20;;
1759;SDS011;877;46.266;20.062;2024-02-16T01:52:50;63.67;;;40.30;;
1759;SDS011;877;46.266;20.062;2024-02-16T01:55:18;64.93;;;39.40;;
1759;SDS011;877;46.266;20.062;2024-02-16T01:57:46;60.85;;;38.45;;
1759;SDS011;877;46.266;20.062;2024-02-16T02:00:12;62.60;;;38.95;;
1759;SDS011;877;46.266;20.062;2024-02-16T02:02:40;62.08;;;37.80;;
1759;SDS011;877;46.266;20.062;2024-02-16T02:05:07;61.05;;;37.00;;
1759;SDS011;877;46.266;20.062;2024-02-16T02:07:33;58.00;;;37.45;;
1759;SDS011;877;46.266;20.062;2024-02-16T02:10:00;52.38;;;36.20;;
1759;SDS011;877;46.266;20.062;2024-02-16T02:12:26;68.78;;;40.85;;
1759;SDS011;877;46.266;20.062;2024-02-16T02:14:52;66.07;;;41.90;;
1759;SDS011;877;46.266;20.062;2024-02-16T02:17:18;65.18;;;38.47;;
1759;SDS011;877;46.266;20.062;2024-02-16T02:19:45;60.28;;;38.35;;
1759;SDS011;877;46.266;20.062;2024-02-16T02:22:21;58.28;;;38.03;;
1759;SDS011;877;46.266;20.062;2024-02-16T02:24:47;72.00;;;42.50;;
1759;SDS011;877;46.266;20.062;2024-02-16T02:27:14;69.70;;;43.40;;
1759;SDS011;877;46.266;20.062;2024-02-16T02:29:42;73.28;;;45.50;;
1759;SDS011;877;46.266;20.062;2024-02-16T02:32:09;75.78;;;45.65;;
1759;SDS011;877;46.266;20.062;2024-02-16T02:34:35;81.15;;;46.75;;
1759;SDS011;877;46.266;20.062;2024-02-16T02:37:02;73.63;;;45.65;;
1759;SDS011;877;46.266;20.062;2024-02-16T02:39:32;70.38;;;41.17;;
1759;SDS011;877;46.266;20.062;2024-02-16T02:41:58;75.55;;;44.53;;
1759;SDS011;877;46.266;20.062;2024-02-16T02:44:24;84.57;;;47.05;;
1759;SDS011;877;46.266;20.062;2024-02-16T02:46:51;67.32;;;42.80;;
1759;SDS011;877;46.266;20.062;2024-02-16T02:49:18;78.75;;;46.53;;
1759;SDS011;877;46.266;20.062;2024-02-16T02:51:45;76.80;;;46.83;;
1759;SDS011;877;46.266;20.062;2024-02-16T02:54:12;80.10;;;48.28;;
1759;SDS011;877;46.266;20.062;2024-02-16T02:56:39;79.07;;;44.80;;
1759;SDS011;877;46.266;20.062;2024-02-16T02:59:05;81.00;;;45.85;;
1759;SDS011;877;46.266;20.062;2024-02-16T03:01:32;67.03;;;43.05;;
1759;SDS011;877;46.266;20.062;2024-02-16T03:03:58;75.85;;;44.15;;
1759;SDS011;877;46.266;20.062;2024-02-16T03:06:26;72.43;;;39.70;;
1759;SDS011;877;46.266;20.062;2024-02-16T03:08:52;63.22;;;37.30;;
1759;SDS011;877;46.266;20.062;2024-02-16T03:11:18;56.05;;;35.40;;
1759;SDS011;877;46.266;20.062;2024-02-16T03:13:46;49.60;;;34.13;;
1759;SDS011;877;46.266;20.062;2024-02-16T03:16:12;58.53;;;36.30;;
1759;SDS011;877;46.266;20.062;2024-02-16T03:18:39;55.45;;;37.13;;
1759;SDS011;877;46.266;20.062;2024-02-16T03:21:05;60.13;;;38.08;;
1759;SDS011;877;46.266;20.062;2024-02-16T03:23:33;64.95;;;41.17;;
1759;SDS011;877;46.266;20.062;2024-02-16T03:25:59;68.13;;;38.50;;
1759;SDS011;877;46.266;20.062;2024-02-16T03:28:25;64.28;;;38.60;;
1759;SDS011;877;46.266;20.062;2024-02-16T03:30:51;57.43;;;37.83;;
1759;SDS011;877;46.266;20.062;2024-02-16T03:33:17;60.33;;;37.58;;
1759;SDS011;877;46.266;20.062;2024-02-16T03:35:43;59.13;;;37.38;;
1759;SDS011;877;46.266;20.062;2024-02-16T03:38:09;61.13;;;37.53;;
1759;SDS011;877;46.266;20.062;2024-02-16T03:40:36;60.33;;;37.23;;
1759;SDS011;877;46.266;20.062;2024-02-16T03:43:02;56.67;;;35.38;;
1759;SDS011;877;46.266;20.062;2024-02-16T03:45:28;59.30;;;35.50;;
1759;SDS011;877;46.266;20.062;2024-02-16T03:47:55;57.17;;;34.72;;
1759;SDS011;877;46.266;20.062;2024-02-16T03:50:22;59.60;;;33.33;;
1759;SDS011;877;46.266;20.062;2024-02-16T03:52:48;57.85;;;33.75;;
1759;SDS011;877;46.266;20.062;2024-02-16T03:55:14;52.40;;;33.23;;
1759;SDS011;877;46.266;20.062;2024-02-16T03:57:40;50.08;;;30.67;;
1759;SDS011;877;46.266;20.062;2024-02-16T04:00:09;56.53;;;33.85;;
1759;SDS011;877;46.266;20.062;2024-02-16T04:02:37;50.05;;;32.28;;
1759;SDS011;877;46.266;20.062;2024-02-16T04:05:03;50.35;;;32.33;;
1759;SDS011;877;46.266;20.062;2024-02-16T04:07:29;53.95;;;33.78;;
1759;SDS011;877;46.266;20.062;2024-02-16T04:09:55;50.03;;;32.22;;
1759;SDS011;877;46.266;20.062;2024-02-16T04:12:21;54.75;;;34.55;;
1759;SDS011;877;46.266;20.062;2024-02-16T04:14:47;51.05;;;34.15;;
1759;SDS011;877;46.266;20.062;2024-02-16T04:17:14;49.42;;;34.40;;
1759;SDS011;877;46.266;20.062;2024-02-16T04:19:41;51.25;;;32.65;;
1759;SDS011;877;46.266;20.062;2024-02-16T04:22:07;49.25;;;32.42;;
1759;SDS011;877;46.266;20.062;2024-02-16T04:24:34;48.70;;;32.13;;
1759;SDS011;877;46.266;20.062;2024-02-16T04:27:00;53.95;;;32.38;;
1759;SDS011;877;46.266;20.062;2024-02-16T04:29:26;60.45;;;36.05;;
1759;SDS011;877;46.266;20.062;2024-02-16T04:31:52;61.87;;;34.47;;
1759;SDS011;877;46.266;20.062;2024-02-16T04:34:18;70.53;;;39.92;;
1759;SDS011;877;46.266;20.062;2024-02-16T04:36:44;71.47;;;37.30;;
1759;SDS011;877;46.266;20.062;2024-02-16T04:39:11;56.22;;;33.40;;
1759;SDS011;877;46.266;20.062;2024-02-16T04:41:40;61.17;;;36.45;;
1759;SDS011;877;46.266;20.062;2024-02-16T04:44:06;68.80;;;36.97;;
1759;SDS011;877;46.266;20.062;2024-02-16T04:46:33;58.97;;;36.15;;
1759;SDS011;877;46.266;20.062;2024-02-16T04:48:59;55.78;;;34.90;;
1759;SDS011;877;46.266;20.062;2024-02-16T04:51:25;52.00;;;32.90;;
1759;SDS011;877;46.266;20.062;2024-02-16T04:53:51;53.30;;;33.13;;
1759;SDS011;877;46.266;20.062;2024-02-16T04:56:18;53.60;;;31.58;;
1759;SDS011;877;46.266;20.062;2024-02-16T04:58:44;52.22;;;32.38;;
1759;SDS011;877;46.266;20.062;2024-02-16T05:01:10;52.25;;;33.45;;
1759;SDS011;877;46.266;20.062;2024-02-16T05:03:38;54.15;;;32.45;;
1759;SDS011;877;46.266;20.062;2024-02-16T05:06:06;53.75;;;35.63;;
1759;SDS011;877;46.266;20.062;2024-02-16T05:08:32;47.47;;;30.65;;
1759;SDS011;877;46.266;20.062;2024-02-16T05:10:59;53.83;;;34.92;;
1759;SDS011;877;46.266;20.062;2024-02-16T05:13:26;61.85;;;36.28;;
1759;SDS011;877;46.266;20.062;2024-02-16T05:15:52;74.22;;;43.30;;
1759;SDS011;877;46.266;20.062;2024-02-16T05:18:21;62.60;;;39.30;;
1759;SDS011;877;46.266;20.062;2024-02-16T05:20:47;60.70;;;39.53;;
1759;SDS011;877;46.266;20.062;2024-02-16T05:23:13;57.60;;;36.65;;
1759;SDS011;877;46.266;20.062;2024-02-16T05:25:39;54.20;;;34.60;;
1759;SDS011;877;46.266;20.062;2024-02-16T05:28:06;55.50;;;34.30;;
1759;SDS011;877;46.266;20.062;2024-02-16T05:30:32;55.15;;;34.00;;
1759;SDS011;877;46.266;20.062;2024-02-16T05:32:59;56.28;;;34.03;;
1759;SDS011;877;46.266;20.062;2024-02-16T05:35:25;51.45;;;32.65;;
1759;SDS011;877;46.266;20.062;2024-02-16T05:37:54;50.47;;;31.15;;
1759;SDS011;877;46.266;20.062;2024-02-16T05:40:22;48.33;;;31.10;;
1759;SDS011;877;46.266;20.062;2024-02-16T05:42:55;51.90;;;32.35;;
1759;SDS011;877;46.266;20.062;2024-02-16T05:45:25;50.38;;;29.92;;
1759;SDS011;877;46.266;20.062;2024-02-16T05:47:51;44.13;;;29.65;;
1759;SDS011;877;46.266;20.062;2024-02-16T05:50:19;42.78;;;28.70;;
1759;SDS011;877;46.266;20.062;2024-02-16T05:52:45;41.72;;;28.88;;
1759;SDS011;877;46.266;20.062;2024-02-16T05:55:11;47.73;;;29.10;;
1759;SDS011;877;46.266;20.062;2024-02-16T05:57:38;51.85;;;29.35;;
1759;SDS011;877;46.266;20.062;2024-02-16T06:00:05;49.85;;;31.02;;
1759;SDS011;877;46.266;20.062;2024-02-16T06:02:34;45.95;;;28.73;;
1759;SDS011;877;46.266;20.062;2024-02-16T06:05:01;47.75;;;30.13;;
1759;SDS011;877;46.266;20.062;2024-02-16T06:07:28;46.72;;;29.80;;
1759;SDS011;877;46.266;20.062;2024-02-16T06:09:54;51.03;;;30.65;;
1759;SDS011;877;46.266;20.062;2024-02-16T06:12:21;52.85;;;33.88;;
1759;SDS011;877;46.266;20.062;2024-02-16T06:14:47;50.75;;;33.17;;
1759;SDS011;877;46.266;20.062;2024-02-16T06:17:17;49.35;;;32.55;;
1759;SDS011;877;46.266;20.062;2024-02-16T06:19:43;58.15;;;32.03;;
1759;SDS011;877;46.266;20.062;2024-02-16T06:22:10;53.72;;;30.50;;
1759;SDS011;877;46.266;20.062;2024-02-16T06:24:36;49.13;;;32.13;;
1759;SDS011;877;46.266;20.062;2024-02-16T06:27:02;58.20;;;33.05;;
1759;SDS011;877;46.266;20.062;2024-02-16T06:29:28;51.75;;;32.15;;
1759;SDS011;877;46.266;20.062;2024-02-16T06:31:58;47.80;;;29.63;;
1759;SDS011;877;46.266;20.062;2024-02-16T06:34:25;54.53;;;30.33;;
1759;SDS011;877;46.266;20.062;2024-02-16T06:36:52;46.60;;;28.17;;
1759;SDS011;877;46.266;20.062;2024-02-16T06:39:18;45.90;;;29.25;;
1759;SDS011;877;46.266;20.062;2024-02-16T06:41:45;43.40;;;27.35;;
1759;SDS011;877;46.266;20.062;2024-02-16T06:44:11;50.33;;;29.35;;
1759;SDS011;877;46.266;20.062;2024-02-16T06:46:38;57.15;;;31.70;;
1759;SDS011;877;46.266;20.062;2024-02-16T06:49:05;42.65;;;27.17;;
1759;SDS011;877;46.266;20.062;2024-02-16T06:51:32;48.53;;;28.02;;
1759;SDS011;877;46.266;20.062;2024-02-16T06:53:58;46.45;;;28.40;;
1759;SDS011;877;46.266;20.062;2024-02-16T06:56:24;45.33;;;28.25;;
1759;SDS011;877;46.266;20.062;2024-02-16T06:58:50;45.95;;;28.27;;
1759;SDS011;877;46.266;20.062;2024-02-16T07:01:16;46.15;;;27.38;;
1759;SDS011;877;46.266;20.062;2024-02-16T07:03:45;41.78;;;26.98;;
1759;SDS011;877;46.266;20.062;2024-02-16T07:06:12;44.97;;;29.25;;
1759;SDS011;877;46.266;20.062;2024-02-16T07:08:42;50.67;;;29.17;;
1759;SDS011;877;46.266;20.062;2024-02-16T07:11:08;43.58;;;29.42;;
1759;SDS011;877;46.266;20.062;2024-02-16T07:13:40;52.25;;;30.25;;
1759;SDS011;877;46.266;20.062;2024-02-16T07:16:07;52.28;;;32.45;;
1759;SDS011;877;46.266;20.062;2024-02-16T07:18:33;65.18;;;34.47;;
1759;SDS011;877;46.266;20.062;2024-02-16T07:21:00;55.80;;;34.00;;
1759;SDS011;877;46.266;20.062;2024-02-16T07:23:27;54.58;;;33.13;;
1759;SDS011;877;46.266;20.062;2024-02-16T07:25:54;54.85;;;34.10;;
1759;SDS011;877;46.266;20.062;2024-02-16T07:28:24;53.75;;;33.33;;
1759;SDS011;877;46.266;20.062;2024-02-16T07:30:51;45.97;;;30.40;;
1759;SDS011;877;46.266;20.062;2024-02-16T07:33:18;48.63;;;30.48;;
1759;SDS011;877;46.266;20.062;2024-02-16T07:35:44;43.25;;;27.02;;
1759;SDS011;877;46.266;20.062;2024-02-16T07:38:10;33.58;;;23.38;;
1759;SDS011;877;46.266;20.062;2024-02-16T07:40:36;32.50;;;22.08;;
1759;SDS011;877;46.266;20.062;2024-02-16T07:43:03;32.17;;;21.65;;
1759;SDS011;877;46.266;20.062;2024-02-16T07:45:29;34.47;;;20.77;;
1759;SDS011;877;46.266;20.062;2024-02-16T07:47:56;29.55;;;20.27;;
1759;SDS011;877;46.266;20.062;2024-02-16T07:50:22;35.25;;;20.15;;
1759;SDS011;877;46.266;20.062;2024-02-16T07:52:49;28.67;;;20.35;;
1759;SDS011;877;46.266;20.062;2024-02-16T07:55:15;46.22;;;30.60;;
1759;SDS011;877;46.266;20.062;2024-02-16T07:57:46;34.20;;;21.00;;
1759;SDS011;877;46.266;20.062;2024-02-16T08:00:13;29.00;;;19.35;;
1759;SDS011;877;46.266;20.062;2024-02-16T08:02:41;30.65;;;19.75;;
1759;SDS011;877;46.266;20.062;2024-02-16T08:05:08;31.05;;;19.33;;
1759;SDS011;877;46.266;20.062;2024-02-16T08:07:35;34.67;;;19.23;;
1759;SDS011;877;46.266;20.062;2024-02-16T08:10:01;28.40;;;20.05;;
1759;SDS011;877;46.266;20.062;2024-02-16T08:12:27;28.25;;;18.60;;
1759;SDS011;877;46.266;20.062;2024-02-16T08:14:54;37.65;;;19.80;;
1759;SDS011;877;46.266;20.062;2024-02-16T08:17:21;29.90;;;19.10;;
1759;SDS011;877;46.266;20.062;2024-02-16T08:19:52;24.55;;;16.23;;
1759;SDS011;877;46.266;20.062;2024-02-16T08:22:19;24.60;;;17.75;;
1759;SDS011;877;46.266;20.062;2024-02-16T08:24:45;26.58;;;16.50;;
1759;SDS011;877;46.266;20.062;2024-02-16T08:27:15;27.30;;;17.90;;
1759;SDS011;877;46.266;20.062;2024-02-16T08:29:44;27.83;;;18.53;;
1759;SDS011;877;46.266;20.062;2024-02-16T08:32:10;24.65;;;17.05;;
1759;SDS011;877;46.266;20.062;2024-02-16T08:34:37;25.90;;;18.27;;
1759;SDS011;877;46.266;20.062;2024-02-16T08:37:04;25.80;;;15.60;;
1759;SDS011;877;46.266;20.062;2024-02-16T08:39:31;22.80;;;15.73;;
1759;SDS011;877;46.266;20.062;2024-02-16T08:41:57;28.07;;;16.60;;
1759;SDS011;877;46.266;20.062;2024-02-16T08:44:24;22.27;;;14.77;;
1759;SDS011;877;46.266;20.062;2024-02-16T08:46:51;18.40;;;13.17;;
1759;SDS011;877;46.266;20.062;2024-02-16T08:49:18;23.23;;;14.00;;
1759;SDS011;877;46.266;20.062;2024-02-16T08:51:46;27.50;;;17.10;;
1759;SDS011;877;46.266;20.062;2024-02-16T08:54:12;24.77;;;15.13;;
1759;SDS011;877;46.266;20.062;2024-02-16T08:56:38;22.40;;;13.87;;
1759;SDS011;877;46.266;20.062;2024-02-16T08:59:05;20.80;;;15.40;;
1759;SDS011;877;46.266;20.062;2024-02-16T09:01:35;29.87;;;17.50;;
1759;SDS011;877;46.266;20.062;2024-02-16T09:04:01;23.10;;;16.37;;
1759;SDS011;877;46.266;20.062;2024-02-16T09:06:28;23.43;;;16.10;;
1759;SDS011;877;46.266;20.062;2024-02-16T09:08:54;24.77;;;15.73;;
1759;SDS011;877;46.266;20.062;2024-02-16T09:11:21;17.00;;;12.53;;
1759;SDS011;877;46.266;20.062;2024-02-16T09:13:47;22.60;;;15.80;;
1759;SDS011;877;46.266;20.062;2024-02-16T09:16:13;22.43;;;15.07;;
1759;SDS011;877;46.266;20.062;2024-02-16T09:18:39;18.93;;;13.90;;
1759;SDS011;877;46.266;20.062;2024-02-16T09:21:06;15.00;;;11.30;;
1759;SDS011;877;46.266;20.062;2024-02-16T09:23:32;17.67;;;12.53;;
1759;SDS011;877;46.266;20.062;2024-02-16T09:25:59;22.10;;;13.60;;
1759;SDS011;877;46.266;20.062;2024-02-16T09:28:25;16.77;;;12.77;;
1759;SDS011;877;46.266;20.062;2024-02-16T09:30:51;17.93;;;12.10;;
1759;SDS011;877;46.266;20.062;2024-02-16T09:33:20;21.40;;;12.90;;
1759;SDS011;877;46.266;20.062;2024-02-16T09:35:48;16.10;;;12.93;;
1759;SDS011;877;46.266;20.062;2024-02-16T09:38:15;15.87;;;12.50;;
1759;SDS011;877;46.266;20.062;2024-02-16T09:40:41;17.80;;;12.57;;
1759;SDS011;877;46.266;20.062;2024-02-16T09:43:07;24.70;;;13.67;;
1759;SDS011;877;46.266;20.062;2024-02-16T09:45:33;20.80;;;14.77;;
1759;SDS011;877;46.266;20.062;2024-02-16T09:47:59;19.10;;;13.37;;
1759;SDS011;877;46.266;20.062;2024-02-16T09:50:27;19.20;;;13.77;;
1759;SDS011;877;46.266;20.062;2024-02-16T09:52:55;18.53;;;13.30;;
1759;SDS011;877;46.266;20.062;2024-02-16T09:55:22;17.40;;;11.93;;
1759;SDS011;877;46.266;20.062;2024-02-16T09:58:01;22.33;;;14.47;;
1759;SDS011;877;46.266;20.062;2024-02-16T10:00:30;16.77;;;12.90;;
1759;SDS011;877;46.266;20.062;2024-02-16T10:02:56;18.83;;;13.30;;
1759;SDS011;877;46.266;20.062;2024-02-16T10:05:22;21.57;;;13.27;;
1759;SDS011;877;46.266;20.062;2024-02-16T10:07:49;22.90;;;14.40;;
1759;SDS011;877;46.266;20.062;2024-02-16T10:10:25;19.00;;;12.53;;
1759;SDS011;877;46.266;20.062;2024-02-16T10:13:06;14.63;;;10.80;;
1759;SDS011;877;46.266;20.062;2024-02-16T10:15:33;14.03;;;10.80;;
1759;SDS011;877;46.266;20.062;2024-02-16T10:18:03;23.07;;;12.57;;
1759;SDS011;877;46.266;20.062;2024-02-16T10:20:30;18.83;;;12.20;;
1759;SDS011;877;46.266;20.062;2024-02-16T10:23:06;17.80;;;11.90;;
1759;SDS011;877;46.266;20.062;2024-02-16T10:25:35;17.00;;;12.17;;
1759;SDS011;877;46.266;20.062;2024-02-16T10:28:03;15.53;;;11.50;;
1759;SDS011;877;46.266;20.062;2024-02-16T10:30:30;21.47;;;11.60;;
1759;SDS011;877;46.266;20.062;2024-02-16T10:32:59;14.03;;;11.00;;
1759;SDS011;877;46.266;20.062;2024-02-16T10:35:26;11.20;;;9.47;;
1759;SDS011;877;46.266;20.062;2024-02-16T10:37:52;16.20;;;11.03;;
1759;SDS011;877;46.266;20.062;2024-02-16T10:40:21;19.77;;;11.80;;
1759;SDS011;877;46.266;20.062;2024-02-16T10:42:49;14.47;;;10.60;;
1759;SDS011;877;46.266;20.062;2024-02-16T10:45:18;17.87;;;11.00;;
1759;SDS011;877;46.266;20.062;2024-02-16T10:47:45;15.10;;;11.93;;
1759;SDS011;877;46.266;20.062;2024-02-16T10:50:11;15.73;;;11.20;;
1759;SDS011;877;46.266;20.062;2024-02-16T10:52:39;13.30;;;11.30;;
1759;SDS011;877;46.266;20.062;2024-02-16T10:55:07;16.80;;;11.40;;
1759;SDS011;877;46.266;20.062;2024-02-16T10:57:35;19.23;;;13.10;;
1759;SDS011;877;46.266;20.062;2024-02-16T11:00:06;15.43;;;10.30;;
1759;SDS011;877;46.266;20.062;2024-02-16T11:02:50;14.60;;;11.07;;
1759;SDS011;877;46.266;20.062;2024-02-16T11:05:18;16.67;;;11.53;;
1759;SDS011;877;46.266;20.062;2024-02-16T11:07:44;13.83;;;10.27;;
1759;SDS011;877;46.266;20.062;2024-02-16T11:10:13;14.63;;;11.63;;
1759;SDS011;877;46.266;20.062;2024-02-16T11:12:42;16.10;;;11.73;;
1759;SDS011;877;46.266;20.062;2024-02-16T11:15:11;15.07;;;11.37;;
1759;SDS011;877;46.266;20.062;2024-02-16T11:17:37;15.63;;;11.93;;
1759;SDS011;877;46.266;20.062;2024-02-16T11:20:03;16.60;;;11.97;;
1759;SDS011;877;46.266;20.062;2024-02-16T11:22:33;15.03;;;11.63;;
1759;SDS011;877;46.266;20.062;2024-02-16T11:25:05;22.67;;;14.07;;
1759;SDS011;877;46.266;20.062;2024-02-16T11:27:32;17.33;;;12.67;;
1759;SDS011;877;46.266;20.062;2024-02-16T11:29:59;12.80;;;10.40;;
1759;SDS011;877;46.266;20.062;2024-02-16T11:32:26;12.93;;;10.93;;
1759;SDS011;877;46.266;20.062;2024-02-16T11:34:52;15.07;;;11.00;;
1759;SDS011;877;46.266;20.062;2024-02-16T11:37:18;16.70;;;11.00;;
1759;SDS011;877;46.266;20.062;2024-02-16T11:39:44;16.87;;;11.80;;
1759;SDS011;877;46.266;20.062;2024-02-16T11:42:12;16.90;;;11.80;;
1759;SDS011;877;46.266;20.062;2024-02-16T11:44:39;15.27;;;12.10;;
1759;SDS011;877;46.266;20.062;2024-02-16T11:47:07;15.20;;;10.37;;
1759;SDS011;877;46.266;20.062;2024-02-16T11:49:42;14.73;;;10.40;;
1759;SDS011;877;46.266;20.062;2024-02-16T11:52:08;15.03;;;11.83;;
1759;SDS011;877;46.266;20.062;2024-02-16T11:54:34;15.03;;;12.27;;
1759;SDS011;877;46.266;20.062;2024-02-16T11:57:02;14.60;;;10.37;;
1759;SDS011;877;46.266;20.062;2024-02-16T11:59:28;14.07;;;11.40;;
1759;SDS011;877;46.266;20.062;2024-02-16T12:01:57;17.27;;;12.40;;
1759;SDS011;877;46.266;20.062;2024-02-16T12:04:24;13.60;;;11.27;;
1759;SDS011;877;46.266;20.062;2024-02-16T12:07:00;18.57;;;10.07;;
1759;SDS011;877;46.266;20.062;2024-02-16T12:09:27;13.30;;;9.50;;
1759;SDS011;877;46.266;20.062;2024-02-16T12:11:53;14.40;;;10.10;;
1759;SDS011;877;46.266;20.062;2024-02-16T12:14:21;12.00;;;9.90;;
1759;SDS011;877;46.266;20.062;2024-02-16T12:16:50;16.60;;;10.73;;
1759;SDS011;877;46.266;20.062;2024-02-16T12:19:19;13.43;;;10.10;;
1759;SDS011;877;46.266;20.062;2024-02-16T12:21:53;13.40;;;10.37;;
1759;SDS011;877;46.266;20.062;2024-02-16T12:24:19;13.00;;;10.27;;
1759;SDS011;877;46.266;20.062;2024-02-16T12:26:46;16.03;;;11.10;;
1759;SDS011;877;46.266;20.062;2024-02-16T12:29:12;14.83;;;10.43;;
1759;SDS011;877;46.266;20.062;2024-02-16T12:31:44;12.43;;;9.30;;
1759;SDS011;877;46.266;20.062;2024-02-16T12:34:11;13.93;;;9.60;;
1759;SDS011;877;46.266;20.062;2024-02-16T12:36:40;14.00;;;9.30;;
1759;SDS011;877;46.266;20.062;2024-02-16T12:39:06;13.10;;;10.27;;
1759;SDS011;877;46.266;20.062;2024-02-16T12:41:34;9.87;;;7.90;;
1759;SDS011;877;46.266;20.062;2024-02-16T12:44:03;9.87;;;8.17;;
1759;SDS011;877;46.266;20.062;2024-02-16T12:46:30;16.67;;;9.40;;
1759;SDS011;877;46.266;20.062;2024-02-16T12:48:56;13.30;;;9.53;;
1759;SDS011;877;46.266;20.062;2024-02-16T12:51:22;10.53;;;8.47;;
1759;SDS011;877;46.266;20.062;2024-02-16T12:53:49;11.53;;;8.17;;
1759;SDS011;877;46.266;20.062;2024-02-16T12:56:16;11.30;;;8.53;;
1759;SDS011;877;46.266;20.062;2024-02-16T12:58:42;14.17;;;9.90;;
1759;SDS011;877;46.266;20.062;2024-02-16T13:01:08;12.57;;;9.97;;
1759;SDS011;877;46.266;20.062;2024-02-16T13:03:37;12.83;;;9.10;;
1759;SDS011;877;46.266;20.062;2024-02-16T13:06:04;13.00;;;9.43;;
1759;SDS011;877;46.266;20.062;2024-02-16T13:08:30;11.90;;;9.67;;
1759;SDS011;877;46.266;20.062;2024-02-16T13:10:57;11.63;;;9.20;;
1759;SDS011;877;46.266;20.062;2024-02-16T13:13:23;11.67;;;8.77;;
1759;SDS011;877;46.266;20.062;2024-02-16T13:15:50;12.33;;;9.30;;
1759;SDS011;877;46.266;20.062;2024-02-16T13:18:16;12.40;;;10.00;;
1759;SDS011;877;46.266;20.062;2024-02-16T13:20:43;12.03;;;8.70;;
1759;SDS011;877;46.266;20.062;2024-02-16T13:23:09;10.27;;;7.90;;
1759;SDS011;877;46.266;20.062;2024-02-16T13:25:35;13.57;;;9.90;;
1759;SDS011;877;46.266;20.062;2024-02-16T13:28:02;12.33;;;8.70;;
1759;SDS011;877;46.266;20.062;2024-02-16T13:30:28;10.53;;;8.67;;
1759;SDS011;877;46.266;20.062;2024-02-16T13:32:55;10.37;;;8.50;;
1759;SDS011;877;46.266;20.062;2024-02-16T13:35:21;13.10;;;9.40;;
1759;SDS011;877;46.266;20.062;2024-02-16T13:37:47;12.30;;;8.33;;
1759;SDS011;877;46.266;20.062;2024-02-16T13:40:13;10.80;;;8.47;;
1759;SDS011;877;46.266;20.062;2024-02-16T13:42:40;10.97;;;7.93;;
1759;SDS011;877;46.266;20.062;2024-02-16T13:45:06;9.03;;;8.00;;
1759;SDS011;877;46.266;20.062;2024-02-16T13:47:33;12.70;;;7.77;;
1759;SDS011;877;46.266;20.062;2024-02-16T13:49:59;12.83;;;8.50;;
1759;SDS011;877;46.266;20.062;2024-02-16T13:52:25;13.10;;;9.23;;
1759;SDS011;877;46.266;20.062;2024-02-16T13:54:51;12.83;;;8.23;;
1759;SDS011;877;46.266;20.062;2024-02-16T13:57:18;12.47;;;8.10;;
1759;SDS011;877;46.266;20.062;2024-02-16T13:59:44;8.77;;;7.47;;
1759;SDS011;877;46.266;20.062;2024-02-16T14:02:11;9.13;;;6.90;;
1759;SDS011;877;46.266;20.062;2024-02-16T14:04:37;9.97;;;8.00;;
1759;SDS011;877;46.266;20.062;2024-02-16T14:07:03;11.10;;;8.27;;
1759;SDS011;877;46.266;20.062;2024-02-16T14:09:30;11.17;;;8.20;;
1759;SDS011;877;46.266;20.062;2024-02-16T14:11:56;12.70;;;8.43;;
1759;SDS011;877;46.266;20.062;2024-02-16T14:14:27;9.37;;;7.43;;
1759;SDS011;877;46.266;20.062;2024-02-16T14:16:53;10.43;;;6.83;;
1759;SDS011;877;46.266;20.062;2024-02-16T14:19:19;12.77;;;7.50;;
1759;SDS011;877;46.266;20.062;2024-02-16T14:21:45;12.47;;;8.07;;
1759;SDS011;877;46.266;20.062;2024-02-16T14:24:12;13.03;;;7.80;;
1759;SDS011;877;46.266;20.062;2024-02-16T14:26:38;8.60;;;6.77;;
1759;SDS011;877;46.266;20.062;2024-02-16T14:29:05;45.93;;;40.83;;
1759;SDS011;877;46.266;20.062;2024-02-16T14:31:31;34.13;;;27.53;;
1759;SDS011;877;46.266;20.062;2024-02-16T14:33:58;13.40;;;10.10;;
1759;SDS011;877;46.266;20.062;2024-02-16T14:36:24;42.47;;;31.80;;
1759;SDS011;877;46.266;20.062;2024-02-16T14:38:51;11.57;;;6.70;;
1759;SDS011;877;46.266;20.062;2024-02-16T14:41:17;146.40;;;86.53;;
1759;SDS011;877;46.266;20.062;2024-02-16T14:43:43;16.60;;;11.70;;
1759;SDS011;877;46.266;20.062;2024-02-16T14:46:09;78.40;;;38.93;;
1759;SDS011;877;46.266;20.062;2024-02-16T14:48:35;55.77;;;32.43;;